createdAt,value
2017-09-24T00:00:46.500Z,13.40
2017-09-24T00:02:47.444Z,13.50
2017-09-24T00:04:48.410Z,13.50
2017-09-24T00:06:49.372Z,13.50
2017-09-24T00:08:50.317Z,13.50
2017-09-24T00:10:51.256Z,13.50
2017-09-24T00:12:59.272Z,13.50
2017-09-24T00:15:00.237Z,13.50
2017-09-24T00:17:01.947Z,13.50
2017-09-24T00:19:02.897Z,13.50
2017-09-24T00:21:03.840Z,13.50
2017-09-24T00:23:04.808Z,13.50
2017-09-24T00:25:05.789Z,13.50
2017-09-24T00:27:07.493Z,13.40
2017-09-24T00:29:08.453Z,13.40
2017-09-24T00:31:09.418Z,13.40
2017-09-24T00:33:10.376Z,13.40
2017-09-24T00:35:12.076Z,13.40
2017-09-24T00:37:13.025Z,13.40
2017-09-24T00:39:13.993Z,13.40
2017-09-24T00:41:14.939Z,13.30
2017-09-24T00:43:15.918Z,13.40
2017-09-24T00:45:17.609Z,13.30
2017-09-24T00:47:18.608Z,13.30
2017-09-24T00:49:19.575Z,13.40
2017-09-24T00:51:21.268Z,13.30
2017-09-24T00:53:22.225Z,13.30
2017-09-24T00:55:23.189Z,13.30
2017-09-24T00:57:24.164Z,13.30
2017-09-24T00:59:32.339Z,13.30
2017-09-24T01:01:33.290Z,13.30
2017-09-24T01:03:34.237Z,13.30
2017-09-24T01:05:35.187Z,13.30
2017-09-24T01:07:36.169Z,13.30
2017-09-24T01:09:37.860Z,13.30
2017-09-24T01:11:38.809Z,13.30
2017-09-24T01:13:39.784Z,13.30
2017-09-24T01:15:40.732Z,13.30
2017-09-24T01:17:41.726Z,13.30
2017-09-24T01:19:43.436Z,13.30
2017-09-24T01:21:44.394Z,13.30
2017-09-24T01:23:45.357Z,13.30
2017-09-24T01:25:46.328Z,13.20
2017-09-24T01:27:48.048Z,13.20
2017-09-24T01:29:49.017Z,13.20
2017-09-24T01:31:49.994Z,13.20
2017-09-24T01:33:51.708Z,13.20
2017-09-24T01:35:52.672Z,13.10
2017-09-24T01:37:53.738Z,13.10
2017-09-24T01:39:55.444Z,13.10
2017-09-24T01:41:56.405Z,13.10
2017-09-24T01:43:57.369Z,13.10
2017-09-24T01:45:58.317Z,13.10
2017-09-24T01:47:59.286Z,13.00
2017-09-24T01:50:00.997Z,13.10
2017-09-24T01:52:01.956Z,13.00
2017-09-24T01:54:02.928Z,13.00
2017-09-24T01:56:03.899Z,13.00
2017-09-24T01:58:05.597Z,13.00
2017-09-24T02:00:06.554Z,13.00
2017-09-24T02:02:07.520Z,13.00
2017-09-24T02:04:08.468Z,13.00
2017-09-24T02:06:09.420Z,13.00
2017-09-24T02:08:10.373Z,13.00
2017-09-24T02:10:12.065Z,13.00
2017-09-24T02:12:13.024Z,13.00
2017-09-24T02:14:13.967Z,13.00
2017-09-24T02:16:14.925Z,13.00
2017-09-24T02:18:15.873Z,13.00
2017-09-24T02:20:16.829Z,12.90
2017-09-24T02:22:17.773Z,12.90
2017-09-24T02:24:18.725Z,12.90
2017-09-24T02:26:19.687Z,12.90
2017-09-24T02:28:20.637Z,12.80
2017-09-24T02:30:21.588Z,12.90
2017-09-24T02:32:22.548Z,12.90
2017-09-24T02:34:24.242Z,12.90
2017-09-24T02:36:25.198Z,12.80
2017-09-24T02:38:26.185Z,12.80
2017-09-24T02:40:27.138Z,12.80
2017-09-24T02:42:28.087Z,12.90
2017-09-24T02:44:29.808Z,12.80
2017-09-24T02:46:30.757Z,12.80
2017-09-24T02:48:31.705Z,12.80
2017-09-24T02:50:32.705Z,12.80
2017-09-24T02:52:40.745Z,12.80
2017-09-24T02:54:41.748Z,12.80
2017-09-24T02:56:43.477Z,12.80
2017-09-24T02:58:44.420Z,12.80
2017-09-24T03:00:45.391Z,12.80
2017-09-24T03:02:46.341Z,12.80
2017-09-24T03:04:48.033Z,12.80
2017-09-24T03:06:48.988Z,12.80
2017-09-24T03:08:49.933Z,12.80
2017-09-24T03:10:50.888Z,12.80
2017-09-24T03:12:51.988Z,12.80
2017-09-24T03:14:52.936Z,12.70
2017-09-24T03:16:53.896Z,12.70
2017-09-24T03:18:55.587Z,12.70
2017-09-24T03:20:56.536Z,12.70
2017-09-24T03:22:57.492Z,12.70
2017-09-24T03:24:58.541Z,12.70
2017-09-24T03:26:59.510Z,12.70
2017-09-24T03:29:00.481Z,12.70
2017-09-24T03:31:02.174Z,12.60
2017-09-24T03:33:03.124Z,12.60
2017-09-24T03:35:04.126Z,12.60
2017-09-24T03:37:05.101Z,12.60
2017-09-24T03:39:06.044Z,12.60
2017-09-24T03:41:07.000Z,12.60
2017-09-24T03:43:07.949Z,12.60
2017-09-24T03:45:08.900Z,12.60
2017-09-24T03:47:09.852Z,12.60
2017-09-24T03:49:10.799Z,12.60
2017-09-24T03:51:11.744Z,12.60
2017-09-24T03:53:12.700Z,12.60
2017-09-24T03:55:13.667Z,12.60
2017-09-24T03:57:14.632Z,12.60
2017-09-24T03:59:15.577Z,12.50
2017-09-24T04:01:16.536Z,12.60
2017-09-24T04:03:17.500Z,12.60
2017-09-24T04:05:18.441Z,12.60
2017-09-24T04:07:19.402Z,12.60
2017-09-24T04:09:20.352Z,12.60
2017-09-24T04:11:21.293Z,12.60
2017-09-24T04:13:22.245Z,12.50
2017-09-24T04:15:23.188Z,12.50
2017-09-24T04:17:24.144Z,12.50
2017-09-24T04:19:25.098Z,12.50
2017-09-24T04:21:26.061Z,12.50
2017-09-24T04:23:27.020Z,12.50
2017-09-24T04:25:27.972Z,12.50
2017-09-24T04:27:28.926Z,12.50
2017-09-24T04:29:30.621Z,12.50
2017-09-24T04:31:31.561Z,12.50
2017-09-24T04:33:39.421Z,12.60
2017-09-24T04:35:40.374Z,12.60
2017-09-24T04:37:41.325Z,12.50
2017-09-24T04:39:42.278Z,12.60
2017-09-24T04:41:43.977Z,12.60
2017-09-24T04:43:44.936Z,12.60
2017-09-24T04:45:45.880Z,12.60
2017-09-24T04:47:46.832Z,12.60
2017-09-24T04:49:47.784Z,12.60
2017-09-24T04:51:48.724Z,12.60
2017-09-24T04:53:49.680Z,12.60
2017-09-24T04:55:50.629Z,12.60
2017-09-24T04:57:51.589Z,12.50
2017-09-24T04:59:52.544Z,12.60
2017-09-24T05:01:53.488Z,12.50
2017-09-24T05:03:54.427Z,12.50
2017-09-24T05:05:55.373Z,12.50
2017-09-24T05:07:56.317Z,12.50
2017-09-24T05:09:57.280Z,12.50
2017-09-24T05:11:58.969Z,12.50
2017-09-24T05:13:59.912Z,12.50
2017-09-24T05:16:00.862Z,12.40
2017-09-24T05:18:01.811Z,12.40
2017-09-24T05:20:02.786Z,12.40
2017-09-24T05:22:03.761Z,12.40
2017-09-24T05:24:04.708Z,12.40
2017-09-24T05:26:05.663Z,12.50
2017-09-24T05:28:07.361Z,12.50
2017-09-24T05:30:08.313Z,12.50
2017-09-24T05:32:09.260Z,12.50
2017-09-24T05:34:10.208Z,12.50
2017-09-24T05:36:11.148Z,12.50
2017-09-24T05:38:12.084Z,12.50
2017-09-24T05:40:13.048Z,12.50
2017-09-24T05:42:13.996Z,12.50
2017-09-24T05:44:14.949Z,12.50
2017-09-24T05:46:15.912Z,12.50
2017-09-24T05:48:16.861Z,12.50
2017-09-24T05:50:17.812Z,12.60
2017-09-24T05:52:18.761Z,12.60
2017-09-24T05:54:19.700Z,12.60
2017-09-24T05:56:20.652Z,12.60
2017-09-24T05:58:21.600Z,12.60
2017-09-24T06:00:22.548Z,12.70
2017-09-24T06:02:23.502Z,12.70
2017-09-24T06:04:25.188Z,12.80
2017-09-24T06:06:26.140Z,12.80
2017-09-24T06:08:27.096Z,12.80
2017-09-24T06:10:28.040Z,12.90
2017-09-24T06:12:28.992Z,12.90
2017-09-24T06:14:29.937Z,12.90
2017-09-24T06:16:30.897Z,12.90
2017-09-24T06:18:31.844Z,12.90
2017-09-24T06:20:32.791Z,12.90
2017-09-24T06:22:33.740Z,12.90
2017-09-24T06:24:34.700Z,13.00
2017-09-24T06:26:35.652Z,12.90
2017-09-24T06:28:36.598Z,12.90
2017-09-24T06:30:37.550Z,12.90
2017-09-24T06:32:38.496Z,12.90
2017-09-24T06:34:39.457Z,12.90
2017-09-24T06:36:41.160Z,12.90
2017-09-24T06:38:42.853Z,12.80
2017-09-24T06:40:43.814Z,12.80
2017-09-24T06:42:45.516Z,12.90
2017-09-24T06:44:46.460Z,12.90
2017-09-24T06:46:47.418Z,12.90
2017-09-24T06:48:48.369Z,12.90
2017-09-24T06:50:49.324Z,12.90
2017-09-24T06:52:50.277Z,13.00
2017-09-24T06:54:51.241Z,13.00
2017-09-24T06:56:52.213Z,13.10
2017-09-24T06:58:53.908Z,13.30
2017-09-24T07:00:54.840Z,13.30
2017-09-24T07:02:55.804Z,13.40
2017-09-24T07:04:56.756Z,13.40
2017-09-24T07:06:57.701Z,13.50
2017-09-24T07:08:58.668Z,13.50
2017-09-24T07:10:59.617Z,13.40
2017-09-24T07:13:00.565Z,13.50
2017-09-24T07:15:01.514Z,13.50
2017-09-24T07:17:02.455Z,13.50
2017-09-24T07:19:03.412Z,13.60
2017-09-24T07:21:11.158Z,13.60
2017-09-24T07:23:12.103Z,13.60
2017-09-24T07:25:13.047Z,13.70
2017-09-24T07:27:13.988Z,13.70
2017-09-24T07:29:14.937Z,13.80
2017-09-24T07:31:15.898Z,13.80
2017-09-24T07:33:16.848Z,13.80
2017-09-24T07:35:17.801Z,13.90
2017-09-24T07:37:18.757Z,13.90
2017-09-24T07:39:19.723Z,14.00
2017-09-24T07:41:20.669Z,14.00
2017-09-24T07:43:21.616Z,14.00
2017-09-24T07:45:22.556Z,14.10
2017-09-24T07:47:23.523Z,14.20
2017-09-24T07:49:25.220Z,14.50
2017-09-24T07:51:26.169Z,14.50
2017-09-24T07:53:34.113Z,14.70
2017-09-24T07:55:35.069Z,15.00
2017-09-24T07:57:36.033Z,15.20
2017-09-24T07:59:37.740Z,15.40
2017-09-24T08:01:38.692Z,15.40
2017-09-24T08:03:39.652Z,15.40
2017-09-24T08:05:40.608Z,15.60
2017-09-24T08:07:41.561Z,15.70
2017-09-24T08:09:42.515Z,15.50
2017-09-24T08:11:43.461Z,15.50
2017-09-24T08:13:44.396Z,15.60
2017-09-24T08:15:45.349Z,15.60
2017-09-24T08:17:46.297Z,15.50
2017-09-24T08:19:47.249Z,15.50
2017-09-24T08:21:48.945Z,15.50
2017-09-24T08:23:49.949Z,15.50
2017-09-24T08:25:50.916Z,15.50
2017-09-24T08:27:52.758Z,15.50
2017-09-24T08:29:53.712Z,15.50
2017-09-24T08:31:54.660Z,15.50
2017-09-24T08:33:55.597Z,15.50
2017-09-24T08:35:56.557Z,15.50
2017-09-24T08:37:58.237Z,15.70
2017-09-24T08:39:59.184Z,15.60
2017-09-24T08:42:00.174Z,15.70
2017-09-24T08:44:01.160Z,15.70
2017-09-24T08:46:02.858Z,15.80
2017-09-24T08:48:03.818Z,15.80
2017-09-24T08:50:04.776Z,15.70
2017-09-24T08:52:05.720Z,15.70
2017-09-24T08:54:06.689Z,15.60
2017-09-24T08:56:07.653Z,15.60
2017-09-24T08:58:09.362Z,15.50
2017-09-24T09:00:10.317Z,15.50
2017-09-24T09:02:11.279Z,15.50
2017-09-24T09:04:12.238Z,15.40
2017-09-24T09:06:13.192Z,15.30
2017-09-24T09:08:14.888Z,15.30
2017-09-24T09:10:15.824Z,15.30
2017-09-24T09:12:16.793Z,15.20
2017-09-24T09:14:17.772Z,15.20
2017-09-24T09:16:18.732Z,15.20
2017-09-24T09:18:20.427Z,15.10
2017-09-24T09:20:21.380Z,15.10
2017-09-24T09:22:22.352Z,15.10
2017-09-24T09:24:23.312Z,15.10
2017-09-24T09:26:24.278Z,15.10
2017-09-24T09:28:25.217Z,15.10
2017-09-24T09:30:26.181Z,15.10
2017-09-24T09:32:40.237Z,15.10
2017-09-24T09:34:54.252Z,15.10
2017-09-24T09:36:55.210Z,15.10
2017-09-24T09:38:56.155Z,15.20
2017-09-24T09:40:57.108Z,15.20
2017-09-24T09:42:58.057Z,15.20
2017-09-24T09:44:59.060Z,15.20
2017-09-24T09:47:12.502Z,15.10
2017-09-24T09:49:13.440Z,15.10
2017-09-24T09:51:14.388Z,15.20
2017-09-24T09:53:15.349Z,15.20
2017-09-24T09:55:16.296Z,15.20
2017-09-24T09:57:17.245Z,15.20
2017-09-24T09:59:18.196Z,15.20
2017-09-24T10:01:19.149Z,15.20
2017-09-24T10:03:20.117Z,15.20
2017-09-24T10:05:21.065Z,15.20
2017-09-24T10:07:35.085Z,15.10
2017-09-24T10:09:48.542Z,15.10
2017-09-24T10:11:49.504Z,15.20
2017-09-24T10:13:51.225Z,15.10
2017-09-24T10:15:52.188Z,15.10
2017-09-24T10:17:53.153Z,15.10
2017-09-24T10:19:54.114Z,15.00
2017-09-24T10:21:55.812Z,15.00
2017-09-24T10:23:56.776Z,15.00
2017-09-24T10:25:57.746Z,15.00
2017-09-24T10:27:58.716Z,14.90
2017-09-24T10:30:12.795Z,14.90
2017-09-24T10:32:20.822Z,14.90
2017-09-24T10:34:21.777Z,14.90
2017-09-24T10:36:22.738Z,14.90
2017-09-24T10:38:23.712Z,14.90
2017-09-24T10:40:25.416Z,14.90
2017-09-24T10:42:26.359Z,14.90
2017-09-24T10:44:27.315Z,14.90
2017-09-24T10:46:28.264Z,14.90
2017-09-24T10:48:29.213Z,14.90
2017-09-24T10:50:30.181Z,14.90
2017-09-24T10:52:31.132Z,15.00
2017-09-24T10:54:32.081Z,15.10
2017-09-24T10:56:33.029Z,15.00
2017-09-24T10:58:33.972Z,15.00
2017-09-24T11:00:34.972Z,15.00
2017-09-24T11:02:35.933Z,14.90
2017-09-24T11:04:36.890Z,15.00
2017-09-24T11:06:37.854Z,15.00
2017-09-24T11:08:39.566Z,15.10
2017-09-24T11:10:40.524Z,15.00
2017-09-24T11:12:41.481Z,15.00
2017-09-24T11:14:42.475Z,15.00
2017-09-24T11:16:44.175Z,15.10
2017-09-24T11:18:45.147Z,15.10
2017-09-24T11:20:46.112Z,15.10
2017-09-24T11:22:47.063Z,15.00
2017-09-24T11:24:48.036Z,15.00
2017-09-24T11:26:49.005Z,15.10
2017-09-24T11:28:49.976Z,15.10
2017-09-24T11:30:50.950Z,15.10
2017-09-24T11:32:59.668Z,15.00
2017-09-24T11:35:00.629Z,15.00
2017-09-24T11:37:02.321Z,15.00
2017-09-24T11:39:03.301Z,15.00
2017-09-24T11:41:04.274Z,15.00
2017-09-24T11:43:05.233Z,15.00
2017-09-24T11:45:06.912Z,15.00
2017-09-24T11:47:07.888Z,15.00
2017-09-24T11:49:08.836Z,14.90
2017-09-24T11:51:09.790Z,14.90
2017-09-24T11:53:10.763Z,15.00
2017-09-24T11:55:11.706Z,15.00
2017-09-24T11:57:12.665Z,15.00
2017-09-24T11:59:14.376Z,15.10
2017-09-24T12:01:15.344Z,15.10
2017-09-24T12:03:16.293Z,15.00
2017-09-24T12:05:17.264Z,15.10
2017-09-24T12:07:18.280Z,15.10
2017-09-24T12:09:19.229Z,15.20
2017-09-24T12:11:20.185Z,15.10
2017-09-24T12:13:21.145Z,15.10
2017-09-24T12:15:22.089Z,15.20
2017-09-24T12:17:23.046Z,15.10
2017-09-24T12:19:24.724Z,15.00
2017-09-24T12:21:26.410Z,15.00
2017-09-24T12:23:27.370Z,15.00
2017-09-24T12:25:28.348Z,15.00
2017-09-24T12:27:29.297Z,15.00
2017-09-24T12:29:30.236Z,15.00
2017-09-24T12:31:31.196Z,15.00
2017-09-24T12:33:32.904Z,15.10
2017-09-24T12:35:33.845Z,15.00
2017-09-24T12:37:34.797Z,15.10
2017-09-24T12:39:35.756Z,15.10
2017-09-24T12:41:36.702Z,15.10
2017-09-24T12:43:37.656Z,15.20
2017-09-24T12:45:38.609Z,15.20
2017-09-24T12:47:39.570Z,15.20
2017-09-24T12:49:40.517Z,15.30
2017-09-24T12:51:41.467Z,15.30
2017-09-24T12:53:42.425Z,15.30
2017-09-24T12:55:44.108Z,15.40
2017-09-24T12:57:45.057Z,15.40
2017-09-24T12:59:46.031Z,15.30
2017-09-24T13:01:46.965Z,15.40
2017-09-24T13:03:47.908Z,15.30
2017-09-24T13:05:48.849Z,15.30
2017-09-24T13:07:49.797Z,15.30
2017-09-24T13:09:50.737Z,15.30
2017-09-24T13:11:51.673Z,15.30
2017-09-24T13:13:52.641Z,15.30
2017-09-24T13:15:53.588Z,15.30
2017-09-24T13:17:54.536Z,15.20
2017-09-24T13:19:55.489Z,15.20
2017-09-24T13:21:56.441Z,15.30
2017-09-24T13:23:59.649Z,15.30
2017-09-24T13:26:01.292Z,15.30
2017-09-24T13:28:02.249Z,15.30
2017-09-24T13:30:03.197Z,15.30
2017-09-24T13:32:04.166Z,15.30
2017-09-24T13:34:05.873Z,15.30
2017-09-24T13:36:06.852Z,15.30
2017-09-24T13:38:07.812Z,15.30
2017-09-24T13:40:08.802Z,15.30
2017-09-24T13:42:10.476Z,15.30
2017-09-24T13:44:11.437Z,15.30
2017-09-24T13:46:12.393Z,15.40
2017-09-24T13:48:14.094Z,15.40
2017-09-24T13:50:15.818Z,15.40
2017-09-24T13:52:16.781Z,15.30
2017-09-24T13:54:17.737Z,15.40
2017-09-24T13:56:18.694Z,15.40
2017-09-24T13:58:20.384Z,15.30
2017-09-24T14:00:21.349Z,15.30
2017-09-24T14:02:22.304Z,15.40
2017-09-24T14:04:23.263Z,15.40
2017-09-24T14:06:26.772Z,15.40
2017-09-24T14:08:28.557Z,15.40
2017-09-24T14:10:29.577Z,15.50
2017-09-24T14:12:30.536Z,15.50
2017-09-24T14:14:31.507Z,15.50
2017-09-24T14:16:33.201Z,15.50
2017-09-24T14:18:34.206Z,15.40
2017-09-24T14:20:35.161Z,15.50
2017-09-24T14:22:36.861Z,15.50
2017-09-24T14:24:37.825Z,15.40
2017-09-24T14:26:38.781Z,15.40
2017-09-24T14:28:39.736Z,15.40
2017-09-24T14:30:40.709Z,15.40
2017-09-24T14:32:42.461Z,15.40
2017-09-24T14:34:43.408Z,15.40
2017-09-24T14:36:44.373Z,15.40
2017-09-24T14:38:46.086Z,15.30
2017-09-24T14:40:47.051Z,15.30
2017-09-24T14:42:48.037Z,15.40
2017-09-24T14:44:49.011Z,15.30
2017-09-24T14:46:50.049Z,15.40
2017-09-24T14:48:50.996Z,15.30
2017-09-24T14:50:52.025Z,15.30
2017-09-24T14:52:53.053Z,15.30
2017-09-24T14:54:54.909Z,15.40
2017-09-24T14:56:55.922Z,15.30
2017-09-24T14:58:56.868Z,15.30
2017-09-24T15:00:57.845Z,15.40
2017-09-24T15:02:58.806Z,15.40
2017-09-24T15:05:00.537Z,15.40
2017-09-24T15:07:01.486Z,15.40
2017-09-24T15:09:02.470Z,15.40
2017-09-24T15:11:04.162Z,15.30
2017-09-24T15:13:05.137Z,15.30
2017-09-24T15:15:06.114Z,15.30
2017-09-24T15:17:07.840Z,15.30
2017-09-24T15:19:08.783Z,15.30
2017-09-24T15:21:09.751Z,15.30
2017-09-24T15:23:10.710Z,15.30
2017-09-24T15:25:11.687Z,15.30
2017-09-24T15:27:12.640Z,15.20
2017-09-24T15:29:13.625Z,15.20
2017-09-24T15:31:14.571Z,15.30
2017-09-24T15:33:16.376Z,15.30
2017-09-24T15:35:18.085Z,15.30
2017-09-24T15:37:19.049Z,15.30
2017-09-24T15:39:19.984Z,15.30
2017-09-24T15:41:21.012Z,15.40
2017-09-24T15:43:22.009Z,15.40
2017-09-24T15:45:23.742Z,15.40
2017-09-24T15:47:24.713Z,15.40
2017-09-24T15:49:26.656Z,15.50
2017-09-24T15:51:27.597Z,15.50
2017-09-24T15:53:28.573Z,15.50
2017-09-24T15:55:29.557Z,15.50
2017-09-24T15:57:30.504Z,15.50
2017-09-24T15:59:31.478Z,15.60
2017-09-24T16:01:32.466Z,15.60
2017-09-24T16:03:34.165Z,15.60
2017-09-24T16:05:35.149Z,15.60
2017-09-24T16:07:36.109Z,15.60
2017-09-24T16:09:37.094Z,15.70
2017-09-24T16:11:38.086Z,15.70
2017-09-24T16:13:39.048Z,15.70
2017-09-24T16:15:40.004Z,15.80
2017-09-24T16:17:40.949Z,15.80
2017-09-24T16:19:41.921Z,15.80
2017-09-24T16:21:42.880Z,15.80
2017-09-24T16:23:43.837Z,15.80
2017-09-24T16:25:44.788Z,15.80
2017-09-24T16:27:45.741Z,15.70
2017-09-24T16:29:46.692Z,15.80
2017-09-24T16:31:47.638Z,15.80
2017-09-24T16:33:48.654Z,15.80
2017-09-24T16:35:49.601Z,15.80
2017-09-24T16:37:50.573Z,15.80
2017-09-24T16:39:51.604Z,15.80
2017-09-24T16:41:52.560Z,15.80
2017-09-24T16:43:53.545Z,15.80
2017-09-24T16:45:54.584Z,15.80
2017-09-24T16:47:55.530Z,15.80
2017-09-24T16:49:56.614Z,15.80
2017-09-24T16:51:58.400Z,15.80
2017-09-24T16:53:59.396Z,15.80
2017-09-24T16:56:00.354Z,15.70
2017-09-24T16:58:01.302Z,15.70
2017-09-24T17:00:03.105Z,15.60
2017-09-24T17:02:04.090Z,15.60
2017-09-24T17:04:06.217Z,15.60
2017-09-24T17:06:07.219Z,15.60
2017-09-24T17:08:08.272Z,15.50
2017-09-24T17:10:09.277Z,15.50
2017-09-24T17:12:10.265Z,15.50
2017-09-24T17:14:11.327Z,15.50
2017-09-24T17:16:14.117Z,15.40
2017-09-24T17:18:15.916Z,15.40
2017-09-24T17:20:16.869Z,15.40
2017-09-24T17:22:17.844Z,15.40
2017-09-24T17:24:18.802Z,15.30
2017-09-24T17:26:19.757Z,15.30
2017-09-24T17:28:20.718Z,15.30
2017-09-24T17:30:22.420Z,15.30
2017-09-24T17:32:23.368Z,15.30
2017-09-24T17:34:24.345Z,15.30
2017-09-24T17:36:25.344Z,15.30
2017-09-24T17:38:26.288Z,15.30
2017-09-24T17:40:27.241Z,15.20
2017-09-24T17:42:28.229Z,15.30
2017-09-24T17:44:29.230Z,15.20
2017-09-24T17:46:30.202Z,15.20
2017-09-24T17:48:31.161Z,15.20
2017-09-24T17:50:32.114Z,15.20
2017-09-24T17:52:33.064Z,15.20
2017-09-24T17:54:34.074Z,15.20
2017-09-24T17:56:35.041Z,15.20
2017-09-24T17:58:36.101Z,15.20
2017-09-24T18:00:37.079Z,15.20
2017-09-24T18:02:38.781Z,15.20
2017-09-24T18:04:39.800Z,15.20
2017-09-24T18:06:40.845Z,15.20
2017-09-24T18:08:41.792Z,15.20
2017-09-24T18:10:42.756Z,15.20
2017-09-24T18:12:43.768Z,15.20
2017-09-24T18:14:45.525Z,15.20
2017-09-24T18:16:47.216Z,15.20
2017-09-24T18:18:48.186Z,15.20
2017-09-24T18:20:49.155Z,15.20
2017-09-24T18:22:50.108Z,15.20
2017-09-24T18:24:51.061Z,15.20
2017-09-24T18:26:52.053Z,15.20
2017-09-24T18:28:53.000Z,15.10
2017-09-24T18:31:01.045Z,15.10
2017-09-24T18:33:02.013Z,15.20
2017-09-24T18:35:02.981Z,15.20
2017-09-24T18:37:04.681Z,15.20
2017-09-24T18:39:05.632Z,15.20
2017-09-24T18:41:06.660Z,15.20
2017-09-24T18:43:07.793Z,15.20
2017-09-24T18:45:09.495Z,15.10
2017-09-24T18:47:14.116Z,15.20
2017-09-24T18:49:15.073Z,15.10
2017-09-24T18:51:16.029Z,15.10
2017-09-24T18:53:17.032Z,15.10
2017-09-24T18:55:17.980Z,15.10
2017-09-24T18:57:18.947Z,15.10
2017-09-24T18:59:20.002Z,15.10
2017-09-24T19:01:20.995Z,15.00
2017-09-24T19:03:22.736Z,15.00
2017-09-24T19:05:23.727Z,15.00
2017-09-24T19:07:24.753Z,15.00
2017-09-24T19:09:25.768Z,15.00
2017-09-24T19:11:26.825Z,15.00
2017-09-24T19:13:27.814Z,15.00
2017-09-24T19:15:29.522Z,15.00
2017-09-24T19:17:30.481Z,15.00
2017-09-24T19:19:31.486Z,15.00
2017-09-24T19:21:39.432Z,15.00
2017-09-24T19:23:40.388Z,15.00
2017-09-24T19:25:41.338Z,15.00
2017-09-24T19:27:42.372Z,15.00
2017-09-24T19:29:43.428Z,15.00
2017-09-24T19:31:44.380Z,15.00
2017-09-24T19:33:45.348Z,15.00
2017-09-24T19:35:47.054Z,15.00
2017-09-24T19:37:48.009Z,15.00
2017-09-24T19:39:48.970Z,15.00
2017-09-24T19:41:49.965Z,14.90
2017-09-24T19:43:50.945Z,14.90
2017-09-24T19:45:51.944Z,14.80
2017-09-24T19:47:53.628Z,14.80
2017-09-24T19:49:54.580Z,14.80
2017-09-24T19:51:55.542Z,14.80
2017-09-24T19:53:56.503Z,14.80
2017-09-24T19:55:57.461Z,14.80
2017-09-24T19:57:58.424Z,14.80
2017-09-24T19:59:59.385Z,14.90
2017-09-24T20:02:01.109Z,14.90
2017-09-24T20:04:02.076Z,14.80
2017-09-24T20:06:03.043Z,14.80
2017-09-24T20:08:04.733Z,14.80
2017-09-24T20:10:05.690Z,14.80
2017-09-24T20:12:06.632Z,14.90
2017-09-24T20:16:35.033Z,14.80
2017-09-24T20:18:36.010Z,14.90
2017-09-24T20:20:37.052Z,14.90
2017-09-24T20:22:38.024Z,14.90
2017-09-24T20:24:40.124Z,14.90
2017-09-24T20:26:41.812Z,14.90
2017-09-24T20:28:42.766Z,14.90
2017-09-24T20:30:43.717Z,14.90
2017-09-24T20:32:44.680Z,14.90
2017-09-24T20:34:45.626Z,14.90
2017-09-24T20:36:46.680Z,14.90
2017-09-24T20:38:47.697Z,14.80
2017-09-24T20:40:48.660Z,14.90
2017-09-24T20:42:49.645Z,14.90
2017-09-24T20:44:51.353Z,14.90
2017-09-24T20:46:52.308Z,14.90
2017-09-24T20:48:53.253Z,14.80
2017-09-24T20:50:54.218Z,14.90
2017-09-24T20:52:55.177Z,14.90
2017-09-24T20:55:03.050Z,14.90
2017-09-24T20:57:04.006Z,14.80
2017-09-24T20:59:04.972Z,14.80
2017-09-24T21:01:05.969Z,14.90
2017-09-24T21:03:06.919Z,14.80
2017-09-24T21:05:07.901Z,14.80
2017-09-24T21:07:08.854Z,14.80
2017-09-24T21:09:09.802Z,14.80
2017-09-24T21:11:10.758Z,14.80
2017-09-24T21:13:11.730Z,14.80
2017-09-24T21:15:13.421Z,14.70
2017-09-24T21:17:14.377Z,14.70
2017-09-24T21:19:15.338Z,14.70
2017-09-24T21:21:16.302Z,14.60
2017-09-24T21:23:17.325Z,14.60
2017-09-24T21:25:18.281Z,14.60
2017-09-24T21:27:19.236Z,14.60
2017-09-24T21:29:20.184Z,14.60
2017-09-24T21:31:21.129Z,14.60
2017-09-24T21:33:22.093Z,14.60
2017-09-24T21:35:23.791Z,14.60
2017-09-24T21:37:24.779Z,14.60
2017-09-24T21:39:25.753Z,14.60
2017-09-24T21:41:27.465Z,14.60
2017-09-24T21:43:28.497Z,14.60
2017-09-24T21:45:29.442Z,14.60
2017-09-24T21:47:30.409Z,14.60
2017-09-24T21:49:31.362Z,14.60
2017-09-24T21:51:32.314Z,14.60
2017-09-24T21:53:33.284Z,14.60
2017-09-24T21:55:34.229Z,14.60
2017-09-24T21:57:35.184Z,14.60
2017-09-24T21:59:36.872Z,14.60
2017-09-24T22:01:37.829Z,14.60
2017-09-24T22:03:38.824Z,14.60
2017-09-24T22:05:39.795Z,14.60
2017-09-24T22:07:41.498Z,14.60
2017-09-24T22:09:42.439Z,14.60
2017-09-24T22:11:43.386Z,14.60
2017-09-24T22:13:44.346Z,14.60
2017-09-24T22:15:45.298Z,14.60
2017-09-24T22:17:46.257Z,14.60
2017-09-24T22:19:47.213Z,14.60
2017-09-24T22:21:48.162Z,14.60
2017-09-24T22:23:49.854Z,14.60
2017-09-24T22:25:50.797Z,14.60
2017-09-24T22:27:51.766Z,14.60
2017-09-24T22:29:52.723Z,14.60
2017-09-24T22:31:53.669Z,14.60
2017-09-24T22:33:55.372Z,14.60
2017-09-24T22:35:56.321Z,14.50
2017-09-24T22:37:58.020Z,14.60
2017-09-24T22:39:58.960Z,14.50
2017-09-24T22:41:59.892Z,14.60
2017-09-24T22:44:00.849Z,14.50
2017-09-24T22:46:01.801Z,14.60
2017-09-24T22:48:09.629Z,14.50
2017-09-24T22:50:11.317Z,14.50
2017-09-24T22:52:12.265Z,14.50
2017-09-24T22:54:13.225Z,14.60
2017-09-24T22:56:14.945Z,14.50
2017-09-24T22:58:15.894Z,14.50
2017-09-24T23:00:16.928Z,14.50
2017-09-24T23:02:17.881Z,14.50
2017-09-24T23:04:18.829Z,14.50
2017-09-24T23:06:19.804Z,14.50
2017-09-24T23:08:20.754Z,14.50
2017-09-24T23:10:21.717Z,14.50
2017-09-24T23:12:23.418Z,14.50
2017-09-24T23:14:24.382Z,14.50
2017-09-24T23:16:25.392Z,14.50
2017-09-24T23:18:26.342Z,14.40
2017-09-24T23:20:27.297Z,14.40
2017-09-24T23:22:28.258Z,14.40
2017-09-24T23:24:29.213Z,14.40
2017-09-24T23:26:30.160Z,14.40
2017-09-24T23:28:31.110Z,14.40
2017-09-24T23:30:32.069Z,14.40
2017-09-24T23:32:33.008Z,14.40
2017-09-24T23:34:33.965Z,14.40
2017-09-24T23:36:34.905Z,14.40
2017-09-24T23:38:35.857Z,14.30
2017-09-24T23:40:36.819Z,14.30
2017-09-24T23:42:38.504Z,14.30
2017-09-24T23:44:39.461Z,14.30
2017-09-24T23:46:40.408Z,14.30
2017-09-24T23:48:41.348Z,14.30
2017-09-24T23:50:42.303Z,14.30
2017-09-24T23:52:43.293Z,14.30
2017-09-24T23:54:44.245Z,14.30
2017-09-24T23:56:45.191Z,14.30
2017-09-24T23:58:46.145Z,14.30
